sensor_id;sensor_type;location;lat;lon;timestamp;P1;durP1;ratioP1;P2;durP2;ratioP2
44165;SDS011;30476;53.468;9.826;2022-07-01T00:01:35;3.20;;;2.80;;
44165;SDS011;30476;53.468;9.826;2022-07-01T00:04:01;6.73;;;3.83;;
44165;SDS011;30476;53.468;9.826;2022-07-01T00:06:27;5.47;;;2.90;;
44165;SDS011;30476;53.468;9.826;2022-07-01T00:08:53;5.50;;;3.43;;
44165;SDS011;30476;53.468;9.826;2022-07-01T00:11:19;8.30;;;4.07;;
44165;SDS011;30476;53.468;9.826;2022-07-01T00:13:45;5.00;;;3.07;;
44165;SDS011;30476;53.468;9.826;2022-07-01T00:16:11;6.13;;;3.20;;
44165;SDS011;30476;53.468;9.826;2022-07-01T00:18:37;3.30;;;3.00;;
44165;SDS011;30476;53.468;9.826;2022-07-01T00:21:03;6.07;;;3.20;;
44165;SDS011;30476;53.468;9.826;2022-07-01T00:23:30;5.70;;;3.07;;
44165;SDS011;30476;53.468;9.826;2022-07-01T00:25:56;3.63;;;2.97;;
44165;SDS011;30476;53.468;9.826;2022-07-01T00:28:22;6.47;;;3.10;;
44165;SDS011;30476;53.468;9.826;2022-07-01T00:30:48;3.93;;;3.00;;
44165;SDS011;30476;53.468;9.826;2022-07-01T00:33:14;4.53;;;3.97;;
44165;SDS011;30476;53.468;9.826;2022-07-01T00:35:40;3.03;;;2.50;;
44165;SDS011;30476;53.468;9.826;2022-07-01T00:38:06;3.90;;;2.87;;
44165;SDS011;30476;53.468;9.826;2022-07-01T00:40:32;8.87;;;3.20;;
44165;SDS011;30476;53.468;9.826;2022-07-01T00:42:58;2.77;;;2.23;;
44165;SDS011;30476;53.468;9.826;2022-07-01T00:45:23;5.67;;;3.67;;
44165;SDS011;30476;53.468;9.826;2022-07-01T00:47:49;4.33;;;3.40;;
44165;SDS011;30476;53.468;9.826;2022-07-01T00:50:16;3.97;;;2.70;;
44165;SDS011;30476;53.468;9.826;2022-07-01T00:52:42;3.43;;;2.90;;
44165;SDS011;30476;53.468;9.826;2022-07-01T00:55:10;5.50;;;2.53;;
44165;SDS011;30476;53.468;9.826;2022-07-01T00:57:38;3.27;;;2.70;;
44165;SDS011;30476;53.468;9.826;2022-07-01T01:00:11;3.63;;;3.03;;
44165;SDS011;30476;53.468;9.826;2022-07-01T01:02:40;3.50;;;3.20;;
44165;SDS011;30476;53.468;9.826;2022-07-01T01:05:07;6.33;;;2.97;;
44165;SDS011;30476;53.468;9.826;2022-07-01T01:07:34;3.77;;;2.50;;
44165;SDS011;30476;53.468;9.826;2022-07-01T01:10:00;3.27;;;2.97;;
44165;SDS011;30476;53.468;9.826;2022-07-01T01:12:27;3.50;;;3.30;;
44165;SDS011;30476;53.468;9.826;2022-07-01T01:14:54;3.70;;;2.83;;
44165;SDS011;30476;53.468;9.826;2022-07-01T01:17:21;3.20;;;2.90;;
44165;SDS011;30476;53.468;9.826;2022-07-01T01:19:48;3.10;;;2.90;;
44165;SDS011;30476;53.468;9.826;2022-07-01T01:22:15;4.70;;;3.40;;
44165;SDS011;30476;53.468;9.826;2022-07-01T01:24:42;3.73;;;2.63;;
44165;SDS011;30476;53.468;9.826;2022-07-01T01:27:08;3.10;;;2.23;;
44165;SDS011;30476;53.468;9.826;2022-07-01T01:29:34;4.17;;;2.50;;
44165;SDS011;30476;53.468;9.826;2022-07-01T01:32:02;3.00;;;2.23;;
44165;SDS011;30476;53.468;9.826;2022-07-01T01:34:29;2.60;;;2.40;;
44165;SDS011;30476;53.468;9.826;2022-07-01T01:36:55;2.87;;;2.67;;
44165;SDS011;30476;53.468;9.826;2022-07-01T01:39:20;3.07;;;2.87;;
44165;SDS011;30476;53.468;9.826;2022-07-01T01:41:46;3.57;;;3.00;;
44165;SDS011;30476;53.468;9.826;2022-07-01T01:44:13;3.40;;;3.20;;
44165;SDS011;30476;53.468;9.826;2022-07-01T01:46:39;3.63;;;3.33;;
44165;SDS011;30476;53.468;9.826;2022-07-01T01:49:05;3.40;;;3.17;;
44165;SDS011;30476;53.468;9.826;2022-07-01T01:51:31;3.73;;;2.63;;
44165;SDS011;30476;53.468;9.826;2022-07-01T01:53:58;3.00;;;2.80;;
44165;SDS011;30476;53.468;9.826;2022-07-01T01:56:24;3.37;;;3.13;;
44165;SDS011;30476;53.468;9.826;2022-07-01T01:58:50;3.40;;;2.47;;
44165;SDS011;30476;53.468;9.826;2022-07-01T02:01:17;2.83;;;2.63;;
44165;SDS011;30476;53.468;9.826;2022-07-01T02:03:45;3.03;;;2.83;;
44165;SDS011;30476;53.468;9.826;2022-07-01T02:06:13;3.40;;;3.20;;
44165;SDS011;30476;53.468;9.826;2022-07-01T02:08:40;3.83;;;3.53;;
44165;SDS011;30476;53.468;9.826;2022-07-01T02:11:06;3.23;;;3.03;;
44165;SDS011;30476;53.468;9.826;2022-07-01T02:13:32;3.53;;;3.30;;
44165;SDS011;30476;53.468;9.826;2022-07-01T02:15:59;3.60;;;3.30;;
44165;SDS011;30476;53.468;9.826;2022-07-01T02:18:25;3.67;;;3.37;;
44165;SDS011;30476;53.468;9.826;2022-07-01T02:20:51;3.60;;;3.33;;
44165;SDS011;30476;53.468;9.826;2022-07-01T02:23:17;4.37;;;3.97;;
44165;SDS011;30476;53.468;9.826;2022-07-01T02:25:43;4.43;;;4.13;;
44165;SDS011;30476;53.468;9.826;2022-07-01T02:28:11;3.30;;;3.00;;
44165;SDS011;30476;53.468;9.826;2022-07-01T02:30:37;3.33;;;3.13;;
44165;SDS011;30476;53.468;9.826;2022-07-01T02:33:03;3.70;;;3.50;;
44165;SDS011;30476;53.468;9.826;2022-07-01T02:35:37;4.47;;;4.17;;
44165;SDS011;30476;53.468;9.826;2022-07-01T02:38:04;4.40;;;4.10;;
44165;SDS011;30476;53.468;9.826;2022-07-01T02:40:31;4.70;;;4.40;;
44165;SDS011;30476;53.468;9.826;2022-07-01T02:42:59;4.80;;;4.50;;
44165;SDS011;30476;53.468;9.826;2022-07-01T02:45:25;4.47;;;4.23;;
44165;SDS011;30476;53.468;9.826;2022-07-01T02:47:51;5.40;;;4.90;;
44165;SDS011;30476;53.468;9.826;2022-07-01T02:50:17;4.97;;;4.67;;
44165;SDS011;30476;53.468;9.826;2022-07-01T02:52:44;5.37;;;5.07;;
44165;SDS011;30476;53.468;9.826;2022-07-01T02:55:11;7.40;;;5.87;;
44165;SDS011;30476;53.468;9.826;2022-07-01T02:57:41;6.50;;;5.90;;
44165;SDS011;30476;53.468;9.826;2022-07-01T03:00:09;6.23;;;5.80;;
44165;SDS011;30476;53.468;9.826;2022-07-01T03:02:37;6.50;;;6.00;;
44165;SDS011;30476;53.468;9.826;2022-07-01T03:05:04;6.17;;;5.77;;
44165;SDS011;30476;53.468;9.826;2022-07-01T03:07:30;6.47;;;6.07;;
44165;SDS011;30476;53.468;9.826;2022-07-01T03:09:56;7.83;;;7.07;;
44165;SDS011;30476;53.468;9.826;2022-07-01T03:12:22;7.80;;;7.27;;
44165;SDS011;30476;53.468;9.826;2022-07-01T03:14:53;9.13;;;8.23;;
44165;SDS011;30476;53.468;9.826;2022-07-01T03:17:21;10.53;;;9.63;;
44165;SDS011;30476;53.468;9.826;2022-07-01T03:19:48;10.83;;;9.87;;
44165;SDS011;30476;53.468;9.826;2022-07-01T03:22:14;10.40;;;9.50;;
44165;SDS011;30476;53.468;9.826;2022-07-01T03:24:40;12.80;;;11.57;;
44165;SDS011;30476;53.468;9.826;2022-07-01T03:27:06;12.80;;;11.70;;
44165;SDS011;30476;53.468;9.826;2022-07-01T03:29:32;12.63;;;11.40;;
44165;SDS011;30476;53.468;9.826;2022-07-01T03:31:57;11.87;;;10.87;;
44165;SDS011;30476;53.468;9.826;2022-07-01T03:34:24;12.33;;;11.03;;
44165;SDS011;30476;53.468;9.826;2022-07-01T03:36:49;12.00;;;11.00;;
44165;SDS011;30476;53.468;9.826;2022-07-01T03:39:15;10.90;;;10.10;;
44165;SDS011;30476;53.468;9.826;2022-07-01T03:41:41;10.50;;;9.50;;
44165;SDS011;30476;53.468;9.826;2022-07-01T03:44:07;10.90;;;9.80;;
44165;SDS011;30476;53.468;9.826;2022-07-01T03:46:33;9.90;;;8.90;;
44165;SDS011;30476;53.468;9.826;2022-07-01T03:49:00;9.03;;;8.33;;
44165;SDS011;30476;53.468;9.826;2022-07-01T03:51:27;9.40;;;8.50;;
44165;SDS011;30476;53.468;9.826;2022-07-01T03:53:53;10.10;;;9.23;;
44165;SDS011;30476;53.468;9.826;2022-07-01T03:56:37;10.20;;;9.20;;
44165;SDS011;30476;53.468;9.826;2022-07-01T03:59:03;10.47;;;9.47;;
44165;SDS011;30476;53.468;9.826;2022-07-01T04:01:29;10.40;;;9.40;;
44165;SDS011;30476;53.468;9.826;2022-07-01T04:04:05;10.30;;;9.27;;
44165;SDS011;30476;53.468;9.826;2022-07-01T04:06:40;9.77;;;8.93;;
44165;SDS011;30476;53.468;9.826;2022-07-01T04:09:06;10.17;;;9.17;;
44165;SDS011;30476;53.468;9.826;2022-07-01T04:11:32;10.10;;;9.20;;
44165;SDS011;30476;53.468;9.826;2022-07-01T04:13:58;9.60;;;8.70;;
44165;SDS011;30476;53.468;9.826;2022-07-01T04:16:23;11.07;;;10.17;;
44165;SDS011;30476;53.468;9.826;2022-07-01T04:18:51;10.13;;;9.33;;
44165;SDS011;30476;53.468;9.826;2022-07-01T04:21:17;8.60;;;7.90;;
44165;SDS011;30476;53.468;9.826;2022-07-01T04:24:02;9.60;;;8.67;;
44165;SDS011;30476;53.468;9.826;2022-07-01T04:26:28;10.13;;;9.23;;
44165;SDS011;30476;53.468;9.826;2022-07-01T04:28:54;9.57;;;8.67;;
44165;SDS011;30476;53.468;9.826;2022-07-01T04:31:20;9.63;;;8.73;;
44165;SDS011;30476;53.468;9.826;2022-07-01T04:33:47;10.03;;;9.13;;
44165;SDS011;30476;53.468;9.826;2022-07-01T04:36:14;8.53;;;7.73;;
44165;SDS011;30476;53.468;9.826;2022-07-01T04:38:40;9.77;;;8.87;;
44165;SDS011;30476;53.468;9.826;2022-07-01T04:41:06;10.60;;;9.57;;
44165;SDS011;30476;53.468;9.826;2022-07-01T04:43:50;9.90;;;8.90;;
44165;SDS011;30476;53.468;9.826;2022-07-01T04:46:16;9.67;;;8.63;;
44165;SDS011;30476;53.468;9.826;2022-07-01T04:48:42;9.63;;;8.40;;
44165;SDS011;30476;53.468;9.826;2022-07-01T04:51:08;16.30;;;10.40;;
44165;SDS011;30476;53.468;9.826;2022-07-01T04:53:34;8.33;;;7.50;;
44165;SDS011;30476;53.468;9.826;2022-07-01T04:56:00;10.37;;;7.10;;
44165;SDS011;30476;53.468;9.826;2022-07-01T04:58:26;6.50;;;4.37;;
44165;SDS011;30476;53.468;9.826;2022-07-01T05:00:52;4.27;;;3.87;;
44165;SDS011;30476;53.468;9.826;2022-07-01T05:03:18;5.23;;;3.17;;
44165;SDS011;30476;53.468;9.826;2022-07-01T05:05:44;5.87;;;2.90;;
44165;SDS011;30476;53.468;9.826;2022-07-01T05:08:10;6.33;;;3.17;;
44165;SDS011;30476;53.468;9.826;2022-07-01T05:10:36;4.60;;;2.00;;
44165;SDS011;30476;53.468;9.826;2022-07-01T05:13:02;2.43;;;2.20;;
44165;SDS011;30476;53.468;9.826;2022-07-01T05:15:28;3.60;;;2.83;;
44165;SDS011;30476;53.468;9.826;2022-07-01T05:17:54;2.10;;;2.00;;
44165;SDS011;30476;53.468;9.826;2022-07-01T05:20:39;2.03;;;1.93;;
44165;SDS011;30476;53.468;9.826;2022-07-01T05:23:23;2.67;;;2.43;;
44165;SDS011;30476;53.468;9.826;2022-07-01T05:25:49;2.53;;;2.33;;
44165;SDS011;30476;53.468;9.826;2022-07-01T05:28:15;5.00;;;2.70;;
44165;SDS011;30476;53.468;9.826;2022-07-01T05:30:40;2.83;;;2.60;;
44165;SDS011;30476;53.468;9.826;2022-07-01T05:33:06;4.80;;;2.53;;
44165;SDS011;30476;53.468;9.826;2022-07-01T05:35:32;5.07;;;2.77;;
44165;SDS011;30476;53.468;9.826;2022-07-01T05:37:58;2.53;;;2.33;;
44165;SDS011;30476;53.468;9.826;2022-07-01T05:40:24;3.93;;;2.50;;
44165;SDS011;30476;53.468;9.826;2022-07-01T05:42:53;7.30;;;2.97;;
44165;SDS011;30476;53.468;9.826;2022-07-01T05:45:19;3.20;;;2.83;;
44165;SDS011;30476;53.468;9.826;2022-07-01T05:47:45;5.60;;;2.93;;
44165;SDS011;30476;53.468;9.826;2022-07-01T05:50:11;3.60;;;3.27;;
44165;SDS011;30476;53.468;9.826;2022-07-01T05:52:37;3.70;;;3.40;;
44165;SDS011;30476;53.468;9.826;2022-07-01T05:55:03;4.00;;;3.60;;
44165;SDS011;30476;53.468;9.826;2022-07-01T05:57:29;3.23;;;2.93;;
44165;SDS011;30476;53.468;9.826;2022-07-01T05:59:55;3.47;;;3.13;;
44165;SDS011;30476;53.468;9.826;2022-07-01T06:02:20;3.43;;;3.23;;
44165;SDS011;30476;53.468;9.826;2022-07-01T06:04:46;3.17;;;2.87;;
44165;SDS011;30476;53.468;9.826;2022-07-01T06:07:12;3.43;;;2.80;;
44165;SDS011;30476;53.468;9.826;2022-07-01T06:09:38;2.10;;;2.00;;
44165;SDS011;30476;53.468;9.826;2022-07-01T06:12:04;2.30;;;2.00;;
44165;SDS011;30476;53.468;9.826;2022-07-01T06:14:31;1.80;;;1.70;;
44165;SDS011;30476;53.468;9.826;2022-07-01T06:16:57;4.43;;;2.40;;
44165;SDS011;30476;53.468;9.826;2022-07-01T06:19:23;2.77;;;2.57;;
44165;SDS011;30476;53.468;9.826;2022-07-01T06:21:49;2.40;;;2.20;;
44165;SDS011;30476;53.468;9.826;2022-07-01T06:24:15;3.50;;;2.50;;
44165;SDS011;30476;53.468;9.826;2022-07-01T06:26:40;3.40;;;2.13;;
44165;SDS011;30476;53.468;9.826;2022-07-01T06:29:06;3.23;;;2.50;;
44165;SDS011;30476;53.468;9.826;2022-07-01T06:31:32;2.57;;;2.37;;
44165;SDS011;30476;53.468;9.826;2022-07-01T06:33:59;3.90;;;2.93;;
44165;SDS011;30476;53.468;9.826;2022-07-01T06:36:25;5.60;;;2.23;;
44165;SDS011;30476;53.468;9.826;2022-07-01T06:38:51;4.80;;;2.93;;
44165;SDS011;30476;53.468;9.826;2022-07-01T06:41:17;4.43;;;2.83;;
44165;SDS011;30476;53.468;9.826;2022-07-01T06:43:52;6.50;;;3.50;;
44165;SDS011;30476;53.468;9.826;2022-07-01T06:46:19;3.17;;;2.77;;
44165;SDS011;30476;53.468;9.826;2022-07-01T06:48:45;2.30;;;2.10;;
44165;SDS011;30476;53.468;9.826;2022-07-01T06:51:11;2.70;;;2.10;;
44165;SDS011;30476;53.468;9.826;2022-07-01T06:53:37;3.13;;;1.80;;
44165;SDS011;30476;53.468;9.826;2022-07-01T06:56:03;2.50;;;1.93;;
44165;SDS011;30476;53.468;9.826;2022-07-01T06:58:30;5.57;;;2.03;;
44165;SDS011;30476;53.468;9.826;2022-07-01T07:00:56;1.60;;;1.50;;
44165;SDS011;30476;53.468;9.826;2022-07-01T07:03:22;9.97;;;2.97;;
44165;SDS011;30476;53.468;9.826;2022-07-01T07:05:48;2.20;;;1.97;;
44165;SDS011;30476;53.468;9.826;2022-07-01T07:08:14;3.40;;;2.80;;
44165;SDS011;30476;53.468;9.826;2022-07-01T07:10:40;5.13;;;2.13;;
44165;SDS011;30476;53.468;9.826;2022-07-01T07:13:06;2.23;;;2.00;;
44165;SDS011;30476;53.468;9.826;2022-07-01T07:15:32;2.03;;;1.90;;
44165;SDS011;30476;53.468;9.826;2022-07-01T07:17:58;3.67;;;2.23;;
44165;SDS011;30476;53.468;9.826;2022-07-01T07:20:24;3.13;;;2.17;;
44165;SDS011;30476;53.468;9.826;2022-07-01T07:22:51;2.20;;;2.07;;
44165;SDS011;30476;53.468;9.826;2022-07-01T07:25:17;4.30;;;1.90;;
44165;SDS011;30476;53.468;9.826;2022-07-01T07:27:43;2.60;;;1.73;;
44165;SDS011;30476;53.468;9.826;2022-07-01T07:30:14;2.80;;;1.63;;
44165;SDS011;30476;53.468;9.826;2022-07-01T07:32:40;2.00;;;1.90;;
44165;SDS011;30476;53.468;9.826;2022-07-01T07:35:07;2.20;;;1.90;;
44165;SDS011;30476;53.468;9.826;2022-07-01T07:37:33;2.70;;;1.63;;
44165;SDS011;30476;53.468;9.826;2022-07-01T07:39:59;2.20;;;1.67;;
44165;SDS011;30476;53.468;9.826;2022-07-01T07:42:26;1.67;;;1.57;;
44165;SDS011;30476;53.468;9.826;2022-07-01T07:44:52;3.00;;;1.90;;
44165;SDS011;30476;53.468;9.826;2022-07-01T07:47:18;1.77;;;1.67;;
44165;SDS011;30476;53.468;9.826;2022-07-01T07:49:44;1.60;;;1.50;;
44165;SDS011;30476;53.468;9.826;2022-07-01T07:52:10;1.77;;;1.67;;
44165;SDS011;30476;53.468;9.826;2022-07-01T07:54:37;2.23;;;2.03;;
44165;SDS011;30476;53.468;9.826;2022-07-01T07:57:03;2.33;;;2.13;;
44165;SDS011;30476;53.468;9.826;2022-07-01T07:59:30;2.20;;;2.00;;
44165;SDS011;30476;53.468;9.826;2022-07-01T08:01:55;1.70;;;1.60;;
44165;SDS011;30476;53.468;9.826;2022-07-01T08:04:22;3.07;;;2.10;;
44165;SDS011;30476;53.468;9.826;2022-07-01T08:06:47;1.90;;;1.80;;
44165;SDS011;30476;53.468;9.826;2022-07-01T08:09:13;2.17;;;1.80;;
44165;SDS011;30476;53.468;9.826;2022-07-01T08:11:39;4.80;;;2.83;;
44165;SDS011;30476;53.468;9.826;2022-07-01T08:14:05;2.27;;;2.10;;
44165;SDS011;30476;53.468;9.826;2022-07-01T08:16:31;3.20;;;3.00;;
44165;SDS011;30476;53.468;9.826;2022-07-01T08:18:57;2.53;;;2.13;;
44165;SDS011;30476;53.468;9.826;2022-07-01T08:21:23;2.40;;;2.30;;
44165;SDS011;30476;53.468;9.826;2022-07-01T08:23:48;1.83;;;1.73;;
44165;SDS011;30476;53.468;9.826;2022-07-01T08:26:14;3.07;;;2.20;;
44165;SDS011;30476;53.468;9.826;2022-07-01T08:28:42;2.10;;;1.90;;
44165;SDS011;30476;53.468;9.826;2022-07-01T08:31:08;2.23;;;2.10;;
44165;SDS011;30476;53.468;9.826;2022-07-01T08:33:34;1.97;;;1.87;;
44165;SDS011;30476;53.468;9.826;2022-07-01T08:36:00;1.93;;;1.83;;
44165;SDS011;30476;53.468;9.826;2022-07-01T08:38:26;2.23;;;2.13;;
44165;SDS011;30476;53.468;9.826;2022-07-01T08:40:51;2.53;;;2.30;;
44165;SDS011;30476;53.468;9.826;2022-07-01T08:43:17;4.10;;;2.00;;
44165;SDS011;30476;53.468;9.826;2022-07-01T08:45:43;3.23;;;2.57;;
44165;SDS011;30476;53.468;9.826;2022-07-01T08:48:09;2.40;;;2.20;;
44165;SDS011;30476;53.468;9.826;2022-07-01T08:50:36;2.10;;;2.00;;
44165;SDS011;30476;53.468;9.826;2022-07-01T08:53:05;2.03;;;1.93;;
44165;SDS011;30476;53.468;9.826;2022-07-01T08:55:32;2.60;;;2.40;;
44165;SDS011;30476;53.468;9.826;2022-07-01T08:58:19;2.60;;;2.40;;
44165;SDS011;30476;53.468;9.826;2022-07-01T09:00:45;3.20;;;2.80;;
44165;SDS011;30476;53.468;9.826;2022-07-01T09:03:11;4.90;;;2.73;;
44165;SDS011;30476;53.468;9.826;2022-07-01T09:05:37;2.20;;;2.10;;
44165;SDS011;30476;53.468;9.826;2022-07-01T09:08:04;3.20;;;2.40;;
44165;SDS011;30476;53.468;9.826;2022-07-01T09:10:31;2.67;;;2.47;;
44165;SDS011;30476;53.468;9.826;2022-07-01T09:13:05;4.17;;;2.43;;
44165;SDS011;30476;53.468;9.826;2022-07-01T09:15:33;2.37;;;2.20;;
44165;SDS011;30476;53.468;9.826;2022-07-01T09:18:04;2.83;;;2.63;;
44165;SDS011;30476;53.468;9.826;2022-07-01T09:20:44;2.00;;;1.77;;
44165;SDS011;30476;53.468;9.826;2022-07-01T09:23:16;1.93;;;1.83;;
44165;SDS011;30476;53.468;9.826;2022-07-01T09:25:46;2.87;;;2.10;;
44165;SDS011;30476;53.468;9.826;2022-07-01T09:28:15;2.90;;;2.10;;
44165;SDS011;30476;53.468;9.826;2022-07-01T09:30:49;3.07;;;1.80;;
44165;SDS011;30476;53.468;9.826;2022-07-01T09:35:52;1.93;;;1.83;;
44165;SDS011;30476;53.468;9.826;2022-07-01T09:38:23;3.40;;;2.00;;
44165;SDS011;30476;53.468;9.826;2022-07-01T09:40:53;2.43;;;2.23;;
44165;SDS011;30476;53.468;9.826;2022-07-01T09:43:24;2.40;;;2.30;;
44165;SDS011;30476;53.468;9.826;2022-07-01T09:46:01;3.27;;;2.97;;
44165;SDS011;30476;53.468;9.826;2022-07-01T09:51:01;3.07;;;2.47;;
44165;SDS011;30476;53.468;9.826;2022-07-01T09:53:29;3.03;;;2.73;;
44165;SDS011;30476;53.468;9.826;2022-07-01T09:55:55;2.93;;;2.13;;
44165;SDS011;30476;53.468;9.826;2022-07-01T09:58:21;2.77;;;2.50;;
44165;SDS011;30476;53.468;9.826;2022-07-01T10:00:47;3.33;;;3.03;;
44165;SDS011;30476;53.468;9.826;2022-07-01T10:03:13;3.30;;;3.00;;
44165;SDS011;30476;53.468;9.826;2022-07-01T10:05:42;2.87;;;2.67;;
44165;SDS011;30476;53.468;9.826;2022-07-01T10:13:39;3.30;;;3.10;;
44165;SDS011;30476;53.468;9.826;2022-07-01T10:16:07;4.37;;;2.87;;
44165;SDS011;30476;53.468;9.826;2022-07-01T10:18:33;4.03;;;3.73;;
44165;SDS011;30476;53.468;9.826;2022-07-01T10:21:00;3.57;;;3.37;;
44165;SDS011;30476;53.468;9.826;2022-07-01T10:23:28;4.33;;;3.73;;
44165;SDS011;30476;53.468;9.826;2022-07-01T10:26:04;5.27;;;3.47;;
44165;SDS011;30476;53.468;9.826;2022-07-01T10:31:14;4.10;;;3.90;;
44165;SDS011;30476;53.468;9.826;2022-07-01T10:36:17;3.60;;;3.27;;
44165;SDS011;30476;53.468;9.826;2022-07-01T10:41:41;4.13;;;3.83;;
44165;SDS011;30476;53.468;9.826;2022-07-01T10:44:21;3.70;;;3.50;;
44165;SDS011;30476;53.468;9.826;2022-07-01T10:46:49;4.10;;;3.87;;
44165;SDS011;30476;53.468;9.826;2022-07-01T10:59:44;4.63;;;4.33;;
44165;SDS011;30476;53.468;9.826;2022-07-01T11:04:47;5.90;;;5.40;;
44165;SDS011;30476;53.468;9.826;2022-07-01T11:07:14;6.80;;;6.40;;
44165;SDS011;30476;53.468;9.826;2022-07-01T11:09:40;7.07;;;6.33;;
44165;SDS011;30476;53.468;9.826;2022-07-01T11:12:06;7.60;;;6.33;;
44165;SDS011;30476;53.468;9.826;2022-07-01T11:14:39;7.67;;;6.87;;
44165;SDS011;30476;53.468;9.826;2022-07-01T11:17:06;7.83;;;7.13;;
44165;SDS011;30476;53.468;9.826;2022-07-01T11:19:33;7.37;;;6.87;;
44165;SDS011;30476;53.468;9.826;2022-07-01T11:21:59;8.50;;;7.63;;
44165;SDS011;30476;53.468;9.826;2022-07-01T11:24:25;7.63;;;6.83;;
44165;SDS011;30476;53.468;9.826;2022-07-01T11:26:57;7.93;;;7.13;;
44165;SDS011;30476;53.468;9.826;2022-07-01T11:29:27;8.33;;;7.47;;
44165;SDS011;30476;53.468;9.826;2022-07-01T11:31:54;8.47;;;7.27;;
44165;SDS011;30476;53.468;9.826;2022-07-01T11:34:20;7.47;;;6.87;;
44165;SDS011;30476;53.468;9.826;2022-07-01T11:36:47;8.07;;;7.47;;
44165;SDS011;30476;53.468;9.826;2022-07-01T11:39:34;8.17;;;7.43;;
44165;SDS011;30476;53.468;9.826;2022-07-01T11:42:02;7.17;;;6.57;;
44165;SDS011;30476;53.468;9.826;2022-07-01T11:44:38;6.70;;;6.20;;
44165;SDS011;30476;53.468;9.826;2022-07-01T11:47:06;8.43;;;7.73;;
44165;SDS011;30476;53.468;9.826;2022-07-01T11:49:34;7.10;;;6.40;;
44165;SDS011;30476;53.468;9.826;2022-07-01T11:52:08;7.60;;;6.93;;
44165;SDS011;30476;53.468;9.826;2022-07-01T11:54:38;10.07;;;6.20;;
44165;SDS011;30476;53.468;9.826;2022-07-01T11:57:11;8.93;;;6.50;;
44165;SDS011;30476;53.468;9.826;2022-07-01T11:59:39;6.33;;;5.83;;
44165;SDS011;30476;53.468;9.826;2022-07-01T12:02:06;7.97;;;6.43;;
44165;SDS011;30476;53.468;9.826;2022-07-01T12:04:33;6.67;;;6.17;;
44165;SDS011;30476;53.468;9.826;2022-07-01T12:06:59;6.63;;;6.20;;
44165;SDS011;30476;53.468;9.826;2022-07-01T12:09:26;6.97;;;6.37;;
44165;SDS011;30476;53.468;9.826;2022-07-01T12:11:52;8.40;;;7.53;;
44165;SDS011;30476;53.468;9.826;2022-07-01T12:14:27;7.60;;;7.10;;
44165;SDS011;30476;53.468;9.826;2022-07-01T12:16:58;7.83;;;7.17;;
44165;SDS011;30476;53.468;9.826;2022-07-01T12:19:29;7.37;;;6.77;;
44165;SDS011;30476;53.468;9.826;2022-07-01T12:22:05;10.07;;;9.23;;
44165;SDS011;30476;53.468;9.826;2022-07-01T12:24:36;8.13;;;7.33;;
44165;SDS011;30476;53.468;9.826;2022-07-01T12:27:04;8.37;;;7.70;;
44165;SDS011;30476;53.468;9.826;2022-07-01T12:29:48;8.00;;;7.40;;
44165;SDS011;30476;53.468;9.826;2022-07-01T12:32:22;8.83;;;8.13;;
44165;SDS011;30476;53.468;9.826;2022-07-01T12:34:53;7.70;;;7.17;;
44165;SDS011;30476;53.468;9.826;2022-07-01T12:37:33;6.77;;;6.17;;
44165;SDS011;30476;53.468;9.826;2022-07-01T12:40:07;6.80;;;6.40;;
44165;SDS011;30476;53.468;9.826;2022-07-01T12:42:45;7.37;;;6.77;;
44165;SDS011;30476;53.468;9.826;2022-07-01T12:45:11;6.83;;;6.23;;
44165;SDS011;30476;53.468;9.826;2022-07-01T12:47:39;6.90;;;6.40;;
44165;SDS011;30476;53.468;9.826;2022-07-01T12:52:36;7.00;;;6.30;;
44165;SDS011;30476;53.468;9.826;2022-07-01T12:58:03;6.90;;;6.20;;
44165;SDS011;30476;53.468;9.826;2022-07-01T13:00:30;7.00;;;6.47;;
44165;SDS011;30476;53.468;9.826;2022-07-01T13:03:00;6.63;;;6.13;;
44165;SDS011;30476;53.468;9.826;2022-07-01T13:05:30;6.87;;;6.37;;
44165;SDS011;30476;53.468;9.826;2022-07-01T13:07:56;8.47;;;7.80;;
44165;SDS011;30476;53.468;9.826;2022-07-01T13:10:22;7.17;;;6.67;;
44165;SDS011;30476;53.468;9.826;2022-07-01T13:12:49;7.37;;;6.87;;
44165;SDS011;30476;53.468;9.826;2022-07-01T13:15:16;7.00;;;6.47;;
44165;SDS011;30476;53.468;9.826;2022-07-01T13:17:42;8.80;;;8.10;;
44165;SDS011;30476;53.468;9.826;2022-07-01T13:20:09;9.17;;;8.43;;
44165;SDS011;30476;53.468;9.826;2022-07-01T13:22:37;9.93;;;9.27;;
44165;SDS011;30476;53.468;9.826;2022-07-01T13:25:03;10.47;;;9.53;;
44165;SDS011;30476;53.468;9.826;2022-07-01T13:27:29;9.27;;;8.47;;
44165;SDS011;30476;53.468;9.826;2022-07-01T13:29:55;10.20;;;9.40;;
44165;SDS011;30476;53.468;9.826;2022-07-01T13:32:22;9.47;;;8.63;;
44165;SDS011;30476;53.468;9.826;2022-07-01T13:34:48;9.40;;;8.60;;
44165;SDS011;30476;53.468;9.826;2022-07-01T13:37:14;8.63;;;7.80;;
44165;SDS011;30476;53.468;9.826;2022-07-01T13:39:40;7.90;;;7.40;;
44165;SDS011;30476;53.468;9.826;2022-07-01T13:42:06;7.50;;;6.83;;
44165;SDS011;30476;53.468;9.826;2022-07-01T13:44:32;8.10;;;7.30;;
44165;SDS011;30476;53.468;9.826;2022-07-01T13:46:58;14.20;;;9.30;;
44165;SDS011;30476;53.468;9.826;2022-07-01T13:49:25;8.70;;;7.97;;
44165;SDS011;30476;53.468;9.826;2022-07-01T13:51:51;10.13;;;7.80;;
44165;SDS011;30476;53.468;9.826;2022-07-01T13:54:16;8.70;;;8.00;;
44165;SDS011;30476;53.468;9.826;2022-07-01T13:56:42;10.10;;;9.40;;
44165;SDS011;30476;53.468;9.826;2022-07-01T13:59:10;9.37;;;8.57;;
44165;SDS011;30476;53.468;9.826;2022-07-01T14:01:36;10.80;;;10.03;;
44165;SDS011;30476;53.468;9.826;2022-07-01T14:04:02;10.60;;;9.80;;
44165;SDS011;30476;53.468;9.826;2022-07-01T14:06:28;9.80;;;9.00;;
44165;SDS011;30476;53.468;9.826;2022-07-01T14:08:54;9.87;;;8.97;;
44165;SDS011;30476;53.468;9.826;2022-07-01T14:11:20;10.33;;;9.63;;
44165;SDS011;30476;53.468;9.826;2022-07-01T14:13:47;10.43;;;9.50;;
44165;SDS011;30476;53.468;9.826;2022-07-01T14:16:13;9.63;;;8.90;;
44165;SDS011;30476;53.468;9.826;2022-07-01T14:18:38;8.53;;;7.83;;
44165;SDS011;30476;53.468;9.826;2022-07-01T14:21:04;9.27;;;8.57;;
44165;SDS011;30476;53.468;9.826;2022-07-01T14:23:31;8.77;;;8.10;;
44165;SDS011;30476;53.468;9.826;2022-07-01T14:25:57;9.90;;;9.10;;
44165;SDS011;30476;53.468;9.826;2022-07-01T14:28:23;8.97;;;8.17;;
44165;SDS011;30476;53.468;9.826;2022-07-01T14:30:49;9.13;;;8.40;;
44165;SDS011;30476;53.468;9.826;2022-07-01T14:33:15;8.97;;;8.27;;
44165;SDS011;30476;53.468;9.826;2022-07-01T14:35:42;7.80;;;7.20;;
44165;SDS011;30476;53.468;9.826;2022-07-01T14:38:08;8.13;;;7.53;;
44165;SDS011;30476;53.468;9.826;2022-07-01T14:40:35;7.17;;;6.67;;
44165;SDS011;30476;53.468;9.826;2022-07-01T14:43:01;10.70;;;7.70;;
44165;SDS011;30476;53.468;9.826;2022-07-01T14:45:28;7.50;;;7.00;;
44165;SDS011;30476;53.468;9.826;2022-07-01T14:47:54;8.03;;;7.33;;
44165;SDS011;30476;53.468;9.826;2022-07-01T14:50:20;8.90;;;8.20;;
44165;SDS011;30476;53.468;9.826;2022-07-01T14:52:46;8.80;;;8.07;;
44165;SDS011;30476;53.468;9.826;2022-07-01T14:55:13;8.93;;;8.33;;
44165;SDS011;30476;53.468;9.826;2022-07-01T14:57:39;8.60;;;7.90;;
44165;SDS011;30476;53.468;9.826;2022-07-01T15:00:05;10.00;;;9.13;;
44165;SDS011;30476;53.468;9.826;2022-07-01T15:02:31;9.67;;;8.90;;
44165;SDS011;30476;53.468;9.826;2022-07-01T15:04:57;9.87;;;8.87;;
44165;SDS011;30476;53.468;9.826;2022-07-01T15:07:23;8.83;;;8.10;;
44165;SDS011;30476;53.468;9.826;2022-07-01T15:09:49;9.23;;;8.37;;
44165;SDS011;30476;53.468;9.826;2022-07-01T15:12:16;9.43;;;8.73;;
44165;SDS011;30476;53.468;9.826;2022-07-01T15:14:44;9.50;;;8.77;;
44165;SDS011;30476;53.468;9.826;2022-07-01T15:17:10;10.50;;;8.90;;
44165;SDS011;30476;53.468;9.826;2022-07-01T15:19:36;9.30;;;8.47;;
44165;SDS011;30476;53.468;9.826;2022-07-01T15:22:04;10.13;;;9.30;;
44165;SDS011;30476;53.468;9.826;2022-07-01T15:24:30;9.60;;;8.63;;